createdAt,value
2023-05-16T00:01:40.373Z,19.90
2023-05-16T00:04:07.380Z,19.70
2023-05-16T00:06:34.772Z,21.90
2023-05-16T00:09:01.648Z,20.33
2023-05-16T00:11:28.416Z,21.63
2023-05-16T00:13:55.008Z,21.77
2023-05-16T00:16:21.970Z,21.63
2023-05-16T00:18:49.835Z,22.67
2023-05-16T00:21:16.499Z,26.63
2023-05-16T00:23:43.079Z,22.87
2023-05-16T00:26:09.824Z,24.47
2023-05-16T00:28:36.474Z,27.53
2023-05-16T00:31:03.135Z,28.07
2023-05-16T00:33:29.740Z,26.47
2023-05-16T00:35:56.394Z,30.13
2023-05-16T00:38:24.855Z,29.47
2023-05-16T00:40:51.960Z,28.70
2023-05-16T00:43:18.533Z,27.70
2023-05-16T00:45:45.622Z,28.00
2023-05-16T00:48:14.042Z,28.67
2023-05-16T00:50:40.891Z,32.67
2023-05-16T00:53:07.414Z,30.53
2023-05-16T00:55:34.471Z,34.17
2023-05-16T00:58:01.474Z,32.13
2023-05-16T01:00:28.390Z,31.13
2023-05-16T01:02:56.305Z,31.53
2023-05-16T01:05:23.215Z,31.00
2023-05-16T01:07:49.770Z,31.17
2023-05-16T01:10:16.435Z,30.67
2023-05-16T01:12:56.710Z,31.43
2023-05-16T01:15:30.292Z,29.80
2023-05-16T01:18:14.249Z,32.57
2023-05-16T01:20:52.345Z,32.87
2023-05-16T01:23:21.636Z,34.53
2023-05-16T01:26:17.168Z,31.47
2023-05-16T01:28:46.850Z,32.13
2023-05-16T01:31:13.674Z,34.43
2023-05-16T01:33:40.351Z,35.87
2023-05-16T01:36:25.424Z,39.93
2023-05-16T01:39:29.396Z,44.47
2023-05-16T01:42:10.123Z,41.70
2023-05-16T01:44:41.640Z,43.83
2023-05-16T01:47:12.642Z,41.37
2023-05-16T01:49:54.927Z,41.90
2023-05-16T01:52:46.041Z,48.47
2023-05-16T01:55:18.928Z,48.03
2023-05-16T01:57:46.116Z,49.30
2023-05-16T02:00:13.175Z,50.83
2023-05-16T02:02:39.832Z,48.17
2023-05-16T02:05:06.930Z,47.80
2023-05-16T02:07:34.011Z,49.60
2023-05-16T02:10:00.661Z,46.37
2023-05-16T02:12:27.201Z,49.13
2023-05-16T02:14:53.714Z,44.33
2023-05-16T02:17:20.259Z,48.17
2023-05-16T02:19:47.060Z,47.53
2023-05-16T02:22:13.707Z,47.17
2023-05-16T02:24:40.312Z,49.50
2023-05-16T02:27:07.089Z,47.83
2023-05-16T02:29:33.653Z,51.17
2023-05-16T02:32:00.215Z,48.50
2023-05-16T02:34:26.731Z,47.93
2023-05-16T02:36:53.258Z,52.67
2023-05-16T02:39:19.789Z,46.50
2023-05-16T02:41:46.324Z,58.53
2023-05-16T02:44:12.843Z,47.63
2023-05-16T02:46:39.597Z,50.43
2023-05-16T02:49:06.422Z,56.27
2023-05-16T02:51:33.079Z,50.07
2023-05-16T02:54:00.959Z,56.53
2023-05-16T02:56:28.041Z,57.70
2023-05-16T02:58:55.793Z,57.00
2023-05-16T03:01:22.410Z,54.93
2023-05-16T03:03:49.148Z,53.03
2023-05-16T03:06:16.228Z,59.33
2023-05-16T03:08:42.929Z,57.67
2023-05-16T03:11:09.508Z,63.93
2023-05-16T03:13:36.086Z,67.57
2023-05-16T03:16:03.060Z,62.87
2023-05-16T03:18:29.716Z,65.07
2023-05-16T03:20:57.347Z,62.50
2023-05-16T03:23:23.951Z,69.78
2023-05-16T03:25:50.638Z,65.40
2023-05-16T03:28:18.375Z,64.17
2023-05-16T03:30:45.339Z,63.33
2023-05-16T03:33:11.948Z,69.03
2023-05-16T03:35:39.144Z,67.60
2023-05-16T03:38:06.240Z,65.37
2023-05-16T03:40:32.904Z,66.53
2023-05-16T03:42:59.512Z,68.77
2023-05-16T03:45:26.418Z,67.60
2023-05-16T03:47:53.494Z,69.97
2023-05-16T03:50:20.023Z,66.40
2023-05-16T03:52:46.646Z,69.43
2023-05-16T03:55:15.092Z,67.53
2023-05-16T03:57:42.544Z,74.33
2023-05-16T04:00:11.150Z,69.97
2023-05-16T04:02:38.247Z,73.57
2023-05-16T04:05:05.406Z,71.37
2023-05-16T04:07:31.970Z,70.13
2023-05-16T04:09:58.754Z,66.57
2023-05-16T04:12:25.436Z,72.93
2023-05-16T04:14:51.991Z,71.70
2023-05-16T04:17:18.530Z,68.20
2023-05-16T04:19:45.203Z,68.40
2023-05-16T04:22:11.818Z,68.23
2023-05-16T04:24:38.421Z,72.13
2023-05-16T04:27:08.864Z,69.83
2023-05-16T04:29:36.241Z,69.47
2023-05-16T04:32:03.711Z,66.47
2023-05-16T04:34:30.666Z,68.53
2023-05-16T04:36:57.864Z,64.37
2023-05-16T04:39:24.462Z,69.37
2023-05-16T04:41:51.534Z,67.07
2023-05-16T04:44:18.138Z,64.53
2023-05-16T04:46:44.688Z,71.63
2023-05-16T04:49:11.439Z,60.10
2023-05-16T04:51:38.066Z,66.03
2023-05-16T04:54:04.720Z,67.83
2023-05-16T04:56:31.912Z,66.60
2023-05-16T04:58:58.472Z,63.77
2023-05-16T05:01:25.219Z,66.43
2023-05-16T05:03:52.186Z,70.47
2023-05-16T05:06:18.754Z,65.97
2023-05-16T05:08:45.529Z,66.87
2023-05-16T05:11:12.433Z,67.23
2023-05-16T05:13:38.994Z,65.80
2023-05-16T05:16:06.018Z,67.70
2023-05-16T05:18:32.836Z,65.43
2023-05-16T05:20:59.992Z,70.77
2023-05-16T05:23:26.645Z,66.70
2023-05-16T05:25:53.289Z,61.13
2023-05-16T05:28:19.841Z,67.27
2023-05-16T05:30:48.276Z,68.03
2023-05-16T05:33:18.822Z,65.30
2023-05-16T05:35:45.553Z,61.37
2023-05-16T05:38:12.154Z,61.77
2023-05-16T05:40:38.685Z,62.57
2023-05-16T05:43:05.808Z,68.97
2023-05-16T05:45:32.535Z,66.07
2023-05-16T05:47:59.347Z,65.10
2023-05-16T05:50:25.959Z,63.20
2023-05-16T05:52:52.519Z,67.67
2023-05-16T05:55:19.152Z,65.53
2023-05-16T05:57:45.714Z,66.70
2023-05-16T06:00:12.754Z,58.87
2023-05-16T06:02:40.808Z,58.63
2023-05-16T06:05:07.955Z,58.27
2023-05-16T06:07:34.535Z,56.60
2023-05-16T06:10:05.093Z,57.83
2023-05-16T06:12:32.009Z,60.50
2023-05-16T06:14:58.576Z,59.00
2023-05-16T06:17:25.545Z,52.77
2023-05-16T06:19:52.136Z,48.73
2023-05-16T06:22:18.683Z,58.30
2023-05-16T06:24:45.261Z,53.33
2023-05-16T06:27:11.808Z,50.23
2023-05-16T06:29:38.585Z,48.63
2023-05-16T06:32:05.456Z,44.00
2023-05-16T06:34:32.244Z,41.67
2023-05-16T06:36:59.653Z,46.23
2023-05-16T06:39:26.282Z,41.70
2023-05-16T06:41:56.188Z,43.77
2023-05-16T06:44:23.676Z,44.60
2023-05-16T06:46:50.429Z,42.10
2023-05-16T06:49:17.216Z,42.70
2023-05-16T06:51:43.789Z,40.33
2023-05-16T06:54:10.730Z,37.30
2023-05-16T06:56:37.639Z,35.90
2023-05-16T06:59:04.307Z,36.17
2023-05-16T07:01:31.005Z,32.77
2023-05-16T07:03:57.786Z,31.43
2023-05-16T07:06:24.553Z,31.90
2023-05-16T07:08:51.430Z,27.97
2023-05-16T07:11:18.017Z,29.37
2023-05-16T07:13:44.791Z,27.17
2023-05-16T07:16:11.608Z,22.00
2023-05-16T07:18:38.301Z,24.43
2023-05-16T07:21:05.676Z,30.40
2023-05-16T07:23:32.406Z,34.90
2023-05-16T07:25:59.125Z,29.53
2023-05-16T07:28:25.966Z,23.97
2023-05-16T07:30:52.624Z,25.73
2023-05-16T07:33:19.191Z,20.70
2023-05-16T07:35:46.334Z,22.40
2023-05-16T07:38:13.257Z,22.70
2023-05-16T07:40:40.215Z,22.47
2023-05-16T07:43:06.813Z,26.20
2023-05-16T07:45:33.527Z,28.10
2023-05-16T07:48:00.372Z,23.60
2023-05-16T07:50:27.307Z,21.73
2023-05-16T07:52:53.988Z,21.27
2023-05-16T07:55:22.157Z,19.67
2023-05-16T07:57:50.518Z,18.87
2023-05-16T08:00:18.005Z,17.63
2023-05-16T08:02:44.854Z,19.53
2023-05-16T08:05:11.619Z,20.60
2023-05-16T08:07:38.200Z,19.63
2023-05-16T08:10:05.395Z,20.23
2023-05-16T08:12:32.003Z,20.67
2023-05-16T08:14:58.678Z,20.90
2023-05-16T08:17:25.476Z,20.90
2023-05-16T08:19:52.308Z,21.98
2023-05-16T08:22:19.034Z,20.47
2023-05-16T08:24:45.614Z,19.00
2023-05-16T08:27:12.849Z,19.57
2023-05-16T08:29:39.421Z,18.47
2023-05-16T08:32:06.287Z,18.10
2023-05-16T08:34:33.504Z,20.33
2023-05-16T08:37:00.508Z,22.47
2023-05-16T08:39:27.126Z,22.53
2023-05-16T08:41:53.855Z,23.60
2023-05-16T08:44:22.008Z,24.83
2023-05-16T08:46:55.210Z,24.70
2023-05-16T08:49:22.830Z,26.03
2023-05-16T08:51:52.058Z,26.10
2023-05-16T08:54:19.084Z,26.23
2023-05-16T08:56:45.915Z,25.33
2023-05-16T08:59:13.055Z,30.40
2023-05-16T09:01:41.185Z,31.80
2023-05-16T09:04:09.699Z,28.83
2023-05-16T09:06:37.088Z,31.43
2023-05-16T09:09:04.633Z,28.93
2023-05-16T09:11:31.242Z,28.53
2023-05-16T09:13:57.814Z,27.40
2023-05-16T09:16:24.542Z,28.67
2023-05-16T09:18:59.548Z,28.30
2023-05-16T09:21:29.760Z,30.63
2023-05-16T09:23:56.522Z,29.73
2023-05-16T09:26:23.235Z,29.50
2023-05-16T09:28:54.724Z,26.70
2023-05-16T09:31:22.822Z,27.63
2023-05-16T09:33:52.361Z,27.38
2023-05-16T09:36:19.465Z,27.70
2023-05-16T09:38:46.139Z,26.13
2023-05-16T09:41:12.935Z,27.07
2023-05-16T09:43:42.098Z,27.63
2023-05-16T09:46:08.978Z,26.13
2023-05-16T09:48:36.217Z,24.80
2023-05-16T09:51:06.494Z,25.50
2023-05-16T09:53:33.855Z,25.60
2023-05-16T09:56:10.671Z,24.00
2023-05-16T09:58:39.274Z,24.10
2023-05-16T10:01:07.256Z,23.17
2023-05-16T10:03:36.508Z,24.07
2023-05-16T10:06:05.495Z,24.47
2023-05-16T10:08:36.404Z,21.97
2023-05-16T10:11:05.746Z,21.73
2023-05-16T10:13:34.429Z,22.60
2023-05-16T10:16:06.985Z,24.10
2023-05-16T10:18:34.970Z,22.13
2023-05-16T10:21:07.837Z,22.77
2023-05-16T10:23:37.967Z,23.47
2023-05-16T10:26:06.196Z,22.40
2023-05-16T10:28:33.155Z,22.93
2023-05-16T10:31:02.758Z,19.83
2023-05-16T10:33:29.339Z,22.77
2023-05-16T10:35:56.733Z,20.10
2023-05-16T10:38:24.659Z,22.23
2023-05-16T10:40:51.746Z,21.50
2023-05-16T10:43:26.901Z,20.17
2023-05-16T10:46:05.551Z,19.97
2023-05-16T10:48:35.236Z,18.10
2023-05-16T10:51:03.544Z,17.60
2023-05-16T10:53:36.432Z,19.33
2023-05-16T10:56:03.355Z,21.57
2023-05-16T10:58:36.243Z,18.33
2023-05-16T11:01:24.822Z,18.17
2023-05-16T11:03:57.886Z,22.03
2023-05-16T11:06:25.508Z,13.70
2023-05-16T11:09:13.393Z,13.63
2023-05-16T11:12:00.634Z,16.43
2023-05-16T11:14:37.932Z,16.80
2023-05-16T11:17:21.806Z,12.80
2023-05-16T11:19:50.621Z,12.47
2023-05-16T11:22:21.538Z,11.83
2023-05-16T11:25:01.205Z,11.83
2023-05-16T11:27:33.227Z,11.70
2023-05-16T11:30:21.726Z,10.30
2023-05-16T11:32:49.106Z,9.57
2023-05-16T11:35:17.742Z,8.90
2023-05-16T11:37:45.396Z,8.80
2023-05-16T11:40:13.477Z,8.00
2023-05-16T11:42:45.848Z,8.33
2023-05-16T11:45:17.549Z,10.33
2023-05-16T11:47:47.994Z,10.13
2023-05-16T11:50:20.418Z,7.77
2023-05-16T11:52:50.401Z,9.67
2023-05-16T11:55:32.575Z,8.23
2023-05-16T11:58:05.664Z,8.85
2023-05-16T12:00:32.619Z,8.47
2023-05-16T12:03:05.479Z,9.02
2023-05-16T12:05:34.082Z,8.13
2023-05-16T12:08:02.663Z,7.20
2023-05-16T12:10:34.006Z,6.80
2023-05-16T12:13:00.960Z,6.03
2023-05-16T12:15:28.488Z,7.33
2023-05-16T12:17:55.813Z,7.17
2023-05-16T12:20:22.552Z,6.50
2023-05-16T12:22:49.222Z,8.07
2023-05-16T12:25:29.295Z,6.80
2023-05-16T12:27:58.612Z,6.00
2023-05-16T12:30:27.641Z,6.73
2023-05-16T12:32:58.708Z,4.90
2023-05-16T12:35:29.816Z,5.00
2023-05-16T12:37:56.516Z,6.00
2023-05-16T12:40:23.906Z,4.47
2023-05-16T12:42:52.064Z,5.60
2023-05-16T12:45:18.757Z,4.77
2023-05-16T12:47:46.952Z,5.00
2023-05-16T12:50:14.970Z,4.30
2023-05-16T12:52:52.010Z,3.83
2023-05-16T12:55:20.532Z,4.13
2023-05-16T12:57:48.380Z,4.97
2023-05-16T13:00:18.738Z,3.93
2023-05-16T13:02:46.536Z,3.97
2023-05-16T13:05:14.011Z,4.20
2023-05-16T13:07:41.108Z,3.97
2023-05-16T13:10:10.697Z,3.53
2023-05-16T13:12:41.317Z,4.23
2023-05-16T13:15:10.334Z,4.03
2023-05-16T13:17:38.038Z,4.10
2023-05-16T13:20:09.623Z,4.33
2023-05-16T13:22:37.029Z,5.13
2023-05-16T13:25:04.595Z,3.40
2023-05-16T13:27:31.856Z,5.13
2023-05-16T13:29:59.024Z,3.03
2023-05-16T13:32:26.387Z,7.17
2023-05-16T13:34:53.296Z,4.27
2023-05-16T13:37:19.999Z,3.90
2023-05-16T13:39:46.647Z,4.00
2023-05-16T13:42:13.338Z,2.97
2023-05-16T13:44:39.951Z,4.93
2023-05-16T13:47:06.695Z,5.87
2023-05-16T13:49:33.379Z,4.30
2023-05-16T13:52:01.548Z,4.27
2023-05-16T13:54:28.219Z,4.60
2023-05-16T13:56:56.056Z,5.00
2023-05-16T13:59:44.685Z,3.70
2023-05-16T14:02:09.421Z,3.40
2023-05-16T14:04:36.050Z,3.10
2023-05-16T14:07:03.186Z,4.63
2023-05-16T14:09:29.815Z,3.20
2023-05-16T14:11:56.403Z,4.17
2023-05-16T14:14:23.046Z,3.87
2023-05-16T14:16:49.680Z,2.80
2023-05-16T14:19:19.117Z,3.43
2023-05-16T14:21:46.543Z,4.93
2023-05-16T14:24:13.110Z,4.03
2023-05-16T14:26:39.803Z,3.40
2023-05-16T14:29:06.674Z,2.80
2023-05-16T14:31:33.508Z,4.32
2023-05-16T14:34:00.227Z,4.60
2023-05-16T14:36:28.804Z,5.03
2023-05-16T14:38:56.292Z,3.97
2023-05-16T14:41:22.901Z,3.70
2023-05-16T14:43:50.978Z,3.57
2023-05-16T14:46:18.369Z,4.17
2023-05-16T14:48:44.984Z,3.50
2023-05-16T14:51:12.130Z,2.50
2023-05-16T14:53:38.698Z,3.30
2023-05-16T14:56:05.400Z,3.27
2023-05-16T14:58:32.422Z,4.50
2023-05-16T15:00:59.276Z,5.70
2023-05-16T15:03:26.054Z,5.27
2023-05-16T15:05:52.965Z,5.63
2023-05-16T15:08:19.584Z,5.30
2023-05-16T15:10:46.306Z,5.13
2023-05-16T15:13:12.926Z,3.83
2023-05-16T15:15:39.552Z,5.17
2023-05-16T15:18:06.287Z,4.03
2023-05-16T15:20:33.230Z,7.40
2023-05-16T15:23:00.278Z,4.87
2023-05-16T15:25:27.427Z,2.80
2023-05-16T15:27:54.523Z,4.90
2023-05-16T15:30:21.809Z,4.47
2023-05-16T15:32:48.525Z,4.67
2023-05-16T15:35:15.436Z,5.17
2023-05-16T15:37:42.057Z,5.73
2023-05-16T15:40:09.624Z,5.03
2023-05-16T15:42:36.444Z,6.17
2023-05-16T15:45:03.524Z,6.80
2023-05-16T15:47:30.205Z,4.70
2023-05-16T15:49:56.839Z,6.00
2023-05-16T15:52:23.698Z,7.33
2023-05-16T15:54:50.470Z,3.90
2023-05-16T15:57:17.094Z,3.90
2023-05-16T15:59:43.730Z,6.23
2023-05-16T16:02:10.380Z,4.50
2023-05-16T16:04:37.073Z,6.67
2023-05-16T16:07:03.814Z,7.10
2023-05-16T16:09:30.468Z,4.27
2023-05-16T16:11:57.078Z,5.63
2023-05-16T16:14:24.593Z,6.38
2023-05-16T16:16:51.580Z,4.60
2023-05-16T16:19:18.674Z,6.43
2023-05-16T16:21:45.510Z,7.20
2023-05-16T16:24:12.949Z,5.72
2023-05-16T16:26:39.624Z,5.67
2023-05-16T16:29:06.520Z,8.77
2023-05-16T16:31:33.234Z,3.83
2023-05-16T16:33:59.933Z,4.17
2023-05-16T16:36:26.696Z,9.50
2023-05-16T16:38:53.489Z,8.90
2023-05-16T16:41:20.688Z,4.63
2023-05-16T16:43:47.392Z,5.37
2023-05-16T16:46:14.078Z,4.30
2023-05-16T16:48:40.717Z,5.07
2023-05-16T16:51:07.355Z,5.17
2023-05-16T16:53:35.354Z,4.50
2023-05-16T16:56:01.971Z,5.57
2023-05-16T16:58:28.624Z,7.47
2023-05-16T17:00:55.296Z,6.73
2023-05-16T17:03:22.230Z,6.57
2023-05-16T17:05:49.074Z,6.60
2023-05-16T17:08:15.668Z,4.03
2023-05-16T17:10:42.280Z,5.90
2023-05-16T17:13:10.465Z,4.67
2023-05-16T17:15:37.908Z,8.33
2023-05-16T17:18:08.350Z,4.43
2023-05-16T17:20:36.356Z,5.83
2023-05-16T17:23:03.773Z,5.07
2023-05-16T17:25:30.614Z,10.17
2023-05-16T17:27:57.452Z,5.97
2023-05-16T17:30:24.041Z,3.23
2023-05-16T17:32:50.973Z,4.00
2023-05-16T17:35:18.196Z,3.83
2023-05-16T17:37:47.247Z,6.87
2023-05-16T17:40:17.013Z,4.43
2023-05-16T17:42:44.878Z,3.47
2023-05-16T17:45:13.692Z,5.00
2023-05-16T17:47:40.606Z,7.10
2023-05-16T17:50:10.083Z,6.90
2023-05-16T17:52:39.384Z,6.63
2023-05-16T17:55:09.423Z,6.43
2023-05-16T17:57:36.229Z,5.97
2023-05-16T18:00:05.392Z,5.47
2023-05-16T18:02:32.728Z,3.10
2023-05-16T18:04:59.532Z,4.60
2023-05-16T18:07:29.086Z,2.87
2023-05-16T18:09:55.794Z,4.63
2023-05-16T18:12:22.596Z,4.60
2023-05-16T18:14:49.472Z,5.73
2023-05-16T18:17:16.301Z,5.60
2023-05-16T18:19:43.108Z,6.60
2023-05-16T18:22:11.931Z,4.93
2023-05-16T18:24:39.686Z,5.90
2023-05-16T18:27:06.862Z,5.20
2023-05-16T18:29:34.236Z,4.77
2023-05-16T18:32:01.198Z,5.97
2023-05-16T18:34:27.900Z,7.20
2023-05-16T18:36:54.517Z,6.03
2023-05-16T18:39:21.232Z,5.27
2023-05-16T18:41:48.303Z,3.50
2023-05-16T18:44:18.436Z,5.47
2023-05-16T18:46:46.511Z,7.65
2023-05-16T18:49:13.902Z,4.97
2023-05-16T18:51:40.655Z,5.93
2023-05-16T18:54:07.428Z,5.23
2023-05-16T18:56:34.361Z,5.60
2023-05-16T18:59:01.110Z,4.80
2023-05-16T19:01:28.529Z,5.13
2023-05-16T19:03:55.410Z,8.20
2023-05-16T19:06:22.150Z,5.03
2023-05-16T19:08:48.769Z,5.77
2023-05-16T19:11:17.143Z,3.53
2023-05-16T19:13:44.968Z,5.17
2023-05-16T19:16:11.678Z,4.50
2023-05-16T19:18:38.758Z,4.73
2023-05-16T19:21:07.570Z,8.18
2023-05-16T19:23:34.213Z,5.67
2023-05-16T19:26:01.046Z,6.78
2023-05-16T19:28:27.664Z,7.00
2023-05-16T19:30:54.288Z,4.50
2023-05-16T19:33:21.434Z,7.63
2023-05-16T19:35:48.906Z,10.13
2023-05-16T19:38:15.551Z,7.20
2023-05-16T19:40:42.233Z,8.27
2023-05-16T19:43:08.930Z,7.57
2023-05-16T19:45:36.155Z,3.07
2023-05-16T19:48:03.422Z,7.33
2023-05-16T19:50:30.109Z,4.60
2023-05-16T19:52:56.738Z,8.87
2023-05-16T19:55:23.565Z,8.73
2023-05-16T19:57:52.193Z,5.87
2023-05-16T20:00:19.060Z,6.63
2023-05-16T20:02:45.774Z,5.90
2023-05-16T20:05:12.681Z,5.47
2023-05-16T20:07:40.330Z,7.00
2023-05-16T20:10:08.788Z,3.37
2023-05-16T20:12:35.520Z,3.80
2023-05-16T20:15:02.502Z,6.07
2023-05-16T20:17:29.201Z,5.87
2023-05-16T20:19:55.877Z,5.57
2023-05-16T20:22:22.713Z,3.97
2023-05-16T20:24:49.378Z,4.97
2023-05-16T20:27:15.975Z,5.03
2023-05-16T20:29:42.553Z,6.37
2023-05-16T20:32:09.195Z,4.27
2023-05-16T20:34:35.889Z,6.90
2023-05-16T20:37:02.528Z,3.70
2023-05-16T20:39:29.109Z,4.82
2023-05-16T20:41:55.799Z,5.13
2023-05-16T20:44:22.405Z,3.60
2023-05-16T20:46:49.050Z,4.47
2023-05-16T20:49:15.746Z,2.70
2023-05-16T20:51:42.541Z,6.20
2023-05-16T20:54:10.506Z,4.17
2023-05-16T20:56:37.070Z,4.43
2023-05-16T20:59:03.827Z,21.97
2023-05-16T21:01:30.560Z,3.43
2023-05-16T21:03:57.216Z,5.63
2023-05-16T21:06:23.969Z,4.43
2023-05-16T21:08:50.568Z,3.80
2023-05-16T21:11:17.174Z,5.60
2023-05-16T21:13:43.908Z,3.43
2023-05-16T21:16:12.451Z,6.00
2023-05-16T21:18:40.301Z,4.22
2023-05-16T21:21:07.343Z,3.57
2023-05-16T21:23:34.392Z,7.33
2023-05-16T21:26:01.041Z,5.50
2023-05-16T21:28:27.643Z,3.97
2023-05-16T21:30:55.618Z,4.70
2023-05-16T21:33:22.292Z,3.50
2023-05-16T21:35:48.961Z,4.73
2023-05-16T21:38:15.541Z,4.67
2023-05-16T21:40:42.162Z,5.00
2023-05-16T21:43:08.784Z,4.33
2023-05-16T21:45:35.480Z,4.13
2023-05-16T21:48:02.198Z,3.87
2023-05-16T21:50:28.852Z,4.27
2023-05-16T21:52:55.422Z,7.90
2023-05-16T21:55:22.051Z,4.90
2023-05-16T21:57:48.875Z,6.47
2023-05-16T22:00:16.059Z,3.40
2023-05-16T22:02:42.861Z,3.63
2023-05-16T22:05:10.037Z,2.93
2023-05-16T22:07:36.995Z,5.53
2023-05-16T22:10:04.855Z,5.40
2023-05-16T22:12:31.455Z,4.23
2023-05-16T22:14:58.030Z,3.67
2023-05-16T22:17:24.787Z,5.57
2023-05-16T22:19:51.406Z,5.30
2023-05-16T22:22:18.152Z,4.57
2023-05-16T22:24:44.786Z,4.17
2023-05-16T22:27:11.508Z,6.57
2023-05-16T22:29:38.328Z,4.10
2023-05-16T22:32:09.613Z,2.57
2023-05-16T22:34:39.616Z,4.77
2023-05-16T22:37:07.688Z,4.83
2023-05-16T22:39:34.322Z,6.43
2023-05-16T22:42:01.216Z,3.67
2023-05-16T22:44:28.492Z,5.70
2023-05-16T22:46:55.170Z,6.30
2023-05-16T22:49:21.774Z,7.03
2023-05-16T22:51:51.178Z,5.10
2023-05-16T22:54:17.859Z,2.87
2023-05-16T22:56:44.433Z,5.03
2023-05-16T22:59:11.083Z,5.13
2023-05-16T23:01:37.769Z,4.90
2023-05-16T23:04:04.912Z,5.40
2023-05-16T23:06:32.566Z,3.63
2023-05-16T23:09:04.018Z,7.18
2023-05-16T23:11:31.741Z,4.37
2023-05-16T23:13:58.384Z,6.70
2023-05-16T23:16:24.988Z,3.83
2023-05-16T23:18:51.786Z,4.23
2023-05-16T23:21:18.433Z,4.07
2023-05-16T23:23:45.095Z,5.73
2023-05-16T23:26:11.703Z,2.90
2023-05-16T23:28:38.325Z,4.30
2023-05-16T23:31:04.959Z,4.67
2023-05-16T23:33:31.626Z,4.03
2023-05-16T23:35:58.197Z,3.87
2023-05-16T23:38:25.639Z,5.27
2023-05-16T23:40:52.353Z,4.23
2023-05-16T23:43:19.168Z,3.80
2023-05-16T23:45:45.818Z,8.27
2023-05-16T23:48:12.569Z,5.47
2023-05-16T23:50:39.268Z,5.03
2023-05-16T23:53:05.957Z,3.30
2023-05-16T23:55:32.596Z,5.00
2023-05-16T23:57:59.166Z,7.10
